createdAt,value
2018-12-07T00:01:29.209Z,100503.00
2018-12-07T00:03:57.690Z,100498.00
2018-12-07T00:06:25.861Z,100497.00
2018-12-07T00:08:54.242Z,100500.00
2018-12-07T00:11:22.511Z,100492.00
2018-12-07T00:13:50.684Z,100477.00
2018-12-07T00:16:18.957Z,100476.00
2018-12-07T00:18:47.240Z,100476.00
2018-12-07T00:21:15.440Z,100469.00
2018-12-07T00:23:43.664Z,100468.00
2018-12-07T00:26:11.915Z,100461.00
2018-12-07T00:28:40.088Z,100453.00
2018-12-07T00:31:08.317Z,100452.00
2018-12-07T00:33:36.487Z,100451.00
2018-12-07T00:36:04.764Z,100462.00
2018-12-07T00:38:32.919Z,100460.00
2018-12-07T00:41:01.185Z,100448.00
2018-12-07T00:43:29.351Z,100430.00
2018-12-07T00:45:57.530Z,100440.00
2018-12-07T00:48:25.720Z,100447.00
2018-12-07T00:50:53.897Z,100432.00
2018-12-07T00:53:22.185Z,100426.00
2018-12-07T00:55:50.453Z,100415.00
2018-12-07T00:58:18.661Z,100419.00
2018-12-07T01:00:47.502Z,100417.00
2018-12-07T01:03:15.915Z,100414.00
2018-12-07T01:05:44.278Z,100427.00
2018-12-07T01:08:12.524Z,100423.00
2018-12-07T01:10:40.728Z,100423.00
2018-12-07T01:13:08.918Z,100430.00
2018-12-07T01:15:37.296Z,100434.00
2018-12-07T01:18:05.483Z,100430.00
2018-12-07T01:20:33.820Z,100439.00
2018-12-07T01:23:02.002Z,100423.00
2018-12-07T01:25:30.272Z,100416.00
2018-12-07T01:27:58.549Z,100416.00
2018-12-07T01:30:26.884Z,100419.00
2018-12-07T01:32:55.120Z,100406.00
2018-12-07T01:35:23.399Z,100403.00
2018-12-07T01:37:51.649Z,100406.00
2018-12-07T01:40:19.934Z,100411.00
2018-12-07T01:42:48.307Z,100392.00
2018-12-07T01:45:16.553Z,100404.00
2018-12-07T01:47:45.619Z,100398.00
2018-12-07T01:50:15.348Z,100388.00
2018-12-07T01:52:43.649Z,100386.00
2018-12-07T01:55:11.923Z,100383.00
2018-12-07T01:57:40.214Z,100381.00
2018-12-07T02:00:09.297Z,100383.00
2018-12-07T02:02:37.556Z,100374.00
2018-12-07T02:05:06.234Z,100371.00
2018-12-07T02:07:35.610Z,100380.00
2018-12-07T02:10:05.028Z,100373.00
2018-12-07T02:12:33.345Z,100374.00
2018-12-07T02:15:01.623Z,100384.00
2018-12-07T02:17:29.800Z,100383.00
2018-12-07T02:19:58.056Z,100369.00
2018-12-07T02:22:26.436Z,100372.00
2018-12-07T02:24:54.590Z,100362.00
2018-12-07T02:27:22.800Z,100359.00
2018-12-07T02:29:51.062Z,100355.00
2018-12-07T02:32:19.353Z,100340.00
2018-12-07T02:34:47.598Z,100338.00
2018-12-07T02:37:15.765Z,100326.00
2018-12-07T02:39:43.996Z,100319.00
2018-12-07T02:42:12.244Z,100312.00
2018-12-07T02:44:40.513Z,100306.00
2018-12-07T02:47:09.449Z,100308.00
2018-12-07T02:49:37.678Z,100299.00
2018-12-07T02:52:05.930Z,100307.00
2018-12-07T02:54:34.326Z,100305.00
2018-12-07T02:57:02.610Z,100307.00
2018-12-07T02:59:30.822Z,100317.00
2018-12-07T03:01:58.979Z,100309.00
2018-12-07T03:04:27.325Z,100314.00
2018-12-07T03:06:55.540Z,100318.00
2018-12-07T03:09:23.773Z,100295.00
2018-12-07T03:11:51.980Z,100288.00
2018-12-07T03:14:20.224Z,100278.00
2018-12-07T03:16:48.444Z,100281.00
2018-12-07T03:19:16.651Z,100286.00
2018-12-07T03:21:45.764Z,100281.00
2018-12-07T03:24:14.301Z,100283.00
2018-12-07T03:26:42.471Z,100270.00
2018-12-07T03:29:11.308Z,100272.00
2018-12-07T03:31:39.468Z,100261.00
2018-12-07T03:34:07.666Z,100259.00
2018-12-07T03:36:36.059Z,100261.00
2018-12-07T03:39:05.848Z,100253.00
2018-12-07T03:41:34.101Z,100257.00
2018-12-07T03:44:02.501Z,100250.00
2018-12-07T03:46:30.768Z,100244.00
2018-12-07T03:48:58.949Z,100244.00
2018-12-07T03:51:27.217Z,100245.00
2018-12-07T03:53:55.376Z,100238.00
2018-12-07T03:56:23.558Z,100232.00
2018-12-07T03:58:52.083Z,100242.00
2018-12-07T04:01:20.329Z,100242.00
2018-12-07T04:03:48.512Z,100244.00
2018-12-07T04:06:16.738Z,100242.00
2018-12-07T04:08:45.239Z,100231.00
2018-12-07T04:11:13.433Z,100219.00
2018-12-07T04:13:41.623Z,100218.00
2018-12-07T04:16:09.868Z,100212.00
2018-12-07T04:18:38.104Z,100220.00
2018-12-07T04:21:06.444Z,100211.00
2018-12-07T04:23:34.626Z,100202.00
2018-12-07T04:26:03.188Z,100196.00
2018-12-07T04:28:31.458Z,100199.00
2018-12-07T04:30:59.683Z,100197.00
2018-12-07T04:33:27.935Z,100204.00
2018-12-07T04:35:56.293Z,100197.00
2018-12-07T04:38:24.449Z,100191.00
2018-12-07T04:40:52.664Z,100191.00
2018-12-07T04:43:20.875Z,100181.00
2018-12-07T04:45:49.182Z,100168.00
2018-12-07T04:48:17.361Z,100182.00
2018-12-07T04:50:45.615Z,100172.00
2018-12-07T04:53:13.823Z,100178.00
2018-12-07T04:55:42.094Z,100165.00
2018-12-07T04:58:10.463Z,100177.00
2018-12-07T05:00:38.729Z,100170.00
2018-12-07T05:03:06.973Z,100169.00
2018-12-07T05:05:35.288Z,100179.00
2018-12-07T05:08:03.566Z,100177.00
2018-12-07T05:10:31.757Z,100178.00
2018-12-07T05:13:00.120Z,100170.00
2018-12-07T05:15:28.395Z,100166.00
2018-12-07T05:17:56.574Z,100153.00
2018-12-07T05:20:24.768Z,100157.00
2018-12-07T05:22:52.938Z,100156.00
2018-12-07T05:25:21.185Z,100156.00
2018-12-07T05:27:49.658Z,100153.00
2018-12-07T05:30:17.889Z,100147.00
2018-12-07T05:32:46.065Z,100147.00
2018-12-07T05:35:14.285Z,100153.00
2018-12-07T05:37:42.548Z,100147.00
2018-12-07T05:40:10.736Z,100132.00
2018-12-07T05:42:39.010Z,100136.00
2018-12-07T05:45:07.436Z,100134.00
2018-12-07T05:47:35.602Z,100126.00
2018-12-07T05:50:05.650Z,100131.00
2018-12-07T05:52:33.867Z,100127.00
2018-12-07T05:55:02.039Z,100128.00
2018-12-07T05:57:30.293Z,100131.00
2018-12-07T05:59:58.574Z,100128.00
2018-12-07T06:02:26.827Z,100125.00
2018-12-07T06:04:55.032Z,100126.00
2018-12-07T06:07:23.394Z,100123.00
2018-12-07T06:09:51.567Z,100127.00
2018-12-07T06:12:19.885Z,100130.00
2018-12-07T06:14:48.122Z,100119.00
2018-12-07T06:17:16.410Z,100115.00
2018-12-07T06:19:44.632Z,100126.00
2018-12-07T06:22:12.788Z,100131.00
2018-12-07T06:24:41.021Z,100118.00
2018-12-07T06:27:09.221Z,100115.00
2018-12-07T06:29:37.465Z,100116.00
2018-12-07T06:32:05.742Z,100108.00
2018-12-07T06:34:33.943Z,100107.00
2018-12-07T06:37:02.310Z,100113.00
2018-12-07T06:39:30.567Z,100112.00
2018-12-07T06:41:58.775Z,100100.00
2018-12-07T06:44:27.040Z,100100.00
2018-12-07T06:46:55.205Z,100098.00
2018-12-07T06:49:23.480Z,100098.00
2018-12-07T06:51:51.741Z,100098.00
2018-12-07T06:54:20.027Z,100092.00
2018-12-07T06:56:48.236Z,100091.00
2018-12-07T06:59:16.543Z,100087.00
2018-12-07T07:01:44.711Z,100086.00
2018-12-07T07:04:13.012Z,100086.00
2018-12-07T07:06:41.293Z,100088.00
2018-12-07T07:09:10.131Z,100082.00
2018-12-07T07:11:38.462Z,100082.00
2018-12-07T07:14:06.736Z,100090.00
2018-12-07T07:16:34.900Z,100091.00
2018-12-07T07:21:28.252Z,100082.00
2018-12-07T07:23:56.552Z,100076.00
2018-12-07T07:26:24.837Z,100080.00
2018-12-07T07:28:53.117Z,100068.00
2018-12-07T07:31:22.926Z,100070.00
2018-12-07T07:33:51.176Z,100069.00
2018-12-07T07:36:19.464Z,100083.00
2018-12-07T07:38:47.640Z,100079.00
2018-12-07T07:41:15.832Z,100079.00
2018-12-07T07:43:45.946Z,100075.00
2018-12-07T07:46:14.605Z,100073.00
2018-12-07T07:48:42.816Z,100070.00
2018-12-07T07:51:11.172Z,100064.00
2018-12-07T07:53:39.451Z,100062.00
2018-12-07T07:56:15.143Z,100065.00
2018-12-07T07:58:38.071Z,100065.00
2018-12-07T08:01:06.283Z,100063.00
2018-12-07T08:03:34.444Z,100056.00
2018-12-07T08:06:02.714Z,100048.00
2018-12-07T08:08:30.873Z,100048.00
2018-12-07T08:10:59.028Z,100050.00
2018-12-07T08:13:27.217Z,100048.00
2018-12-07T08:15:55.453Z,100043.00
2018-12-07T08:18:23.604Z,100048.00
2018-12-07T08:20:52.098Z,100036.00
2018-12-07T08:23:20.258Z,100047.00
2018-12-07T08:25:48.452Z,100043.00
2018-12-07T08:28:16.633Z,100039.00
2018-12-07T08:30:44.827Z,100040.00
2018-12-07T08:33:13.083Z,100033.00
2018-12-07T08:35:41.358Z,100045.00
2018-12-07T08:38:09.533Z,100033.00
2018-12-07T08:40:37.807Z,100030.00
2018-12-07T08:43:06.042Z,100042.00
2018-12-07T08:45:34.360Z,100030.00
2018-12-07T08:48:02.584Z,100037.00
2018-12-07T08:50:30.809Z,100032.00
2018-12-07T08:52:59.086Z,100034.00
2018-12-07T08:55:27.343Z,100030.00
2018-12-07T08:57:56.016Z,100028.00
2018-12-07T09:00:24.977Z,100027.00
2018-12-07T09:02:53.236Z,100019.00
2018-12-07T09:05:21.468Z,100017.00
2018-12-07T09:07:49.710Z,100013.00
2018-12-07T09:10:18.031Z,100016.00
2018-12-07T09:12:46.467Z,100010.00
2018-12-07T09:15:14.736Z,100007.00
2018-12-07T09:17:43.019Z,100007.00
2018-12-07T09:20:11.288Z,100005.00
2018-12-07T09:22:39.444Z,100008.00
2018-12-07T09:25:07.790Z,99997.00
2018-12-07T09:27:36.042Z,100002.00
2018-12-07T09:30:05.441Z,100004.00
2018-12-07T09:32:33.753Z,99999.00
2018-12-07T09:35:02.026Z,100001.00
2018-12-07T09:37:30.288Z,100002.00
2018-12-07T09:39:58.559Z,99985.00
2018-12-07T09:42:26.845Z,99995.00
2018-12-07T09:44:55.020Z,99986.00
2018-12-07T09:47:23.180Z,99974.00
2018-12-07T09:49:51.482Z,99979.00
2018-12-07T09:52:19.799Z,99975.00
2018-12-07T09:54:48.034Z,99967.00
2018-12-07T09:57:16.296Z,99965.00
2018-12-07T09:59:44.474Z,99957.00
2018-12-07T10:02:12.641Z,99958.00
2018-12-07T10:04:40.903Z,99948.00
2018-12-07T10:07:09.140Z,99938.00
2018-12-07T10:09:37.306Z,99938.00
2018-12-07T10:12:05.560Z,99936.00
2018-12-07T10:14:33.817Z,99930.00
2018-12-07T10:17:02.783Z,99924.00
2018-12-07T10:19:31.082Z,99918.00
2018-12-07T10:21:59.362Z,99914.00
2018-12-07T10:24:27.524Z,99910.00
2018-12-07T10:27:01.754Z,99904.00
2018-12-07T10:29:29.922Z,99893.00
2018-12-07T10:31:58.353Z,99894.00
2018-12-07T10:34:26.570Z,99898.00
2018-12-07T10:36:54.853Z,99889.00
2018-12-07T10:39:23.038Z,99886.00
2018-12-07T10:41:51.249Z,99879.00
2018-12-07T10:44:19.480Z,99881.00
2018-12-07T10:46:47.846Z,99877.00
2018-12-07T10:49:16.129Z,99871.00
2018-12-07T10:51:44.286Z,99869.00
2018-12-07T10:54:12.570Z,99862.00
2018-12-07T10:56:40.801Z,99848.00
2018-12-07T10:59:08.995Z,99845.00
2018-12-07T11:01:43.001Z,99840.00
2018-12-07T11:04:16.690Z,99841.00
2018-12-07T11:06:48.397Z,99835.00
2018-12-07T11:09:22.198Z,99830.00
2018-12-07T11:11:52.379Z,99835.00
2018-12-07T11:14:22.574Z,99836.00
2018-12-07T11:20:02.341Z,99828.00
2018-12-07T11:22:36.329Z,99823.00
2018-12-07T11:25:11.142Z,99817.00
2018-12-07T11:27:44.828Z,99818.00
2018-12-07T11:30:18.816Z,99810.00
2018-12-07T11:32:52.624Z,99806.00
2018-12-07T11:35:22.738Z,99799.00
2018-12-07T11:37:51.763Z,99798.00
2018-12-07T11:40:19.941Z,99793.00
2018-12-07T11:42:48.428Z,99791.00
2018-12-07T11:45:16.697Z,99795.00
2018-12-07T11:47:44.981Z,99787.00
2018-12-07T11:50:15.297Z,99778.00
2018-12-07T11:52:43.541Z,99779.00
2018-12-07T11:55:11.740Z,99772.00
2018-12-07T11:57:40.029Z,99778.00
2018-12-07T12:00:08.440Z,99780.00
2018-12-07T12:02:36.667Z,99769.00
2018-12-07T12:05:05.477Z,99770.00
2018-12-07T12:07:33.641Z,99767.00
2018-12-07T12:10:01.927Z,99762.00
2018-12-07T12:12:30.200Z,99752.00
2018-12-07T12:14:58.467Z,99748.00
2018-12-07T12:17:26.629Z,99746.00
2018-12-07T12:19:54.920Z,99730.00
2018-12-07T12:22:23.196Z,99736.00
2018-12-07T12:24:51.374Z,99725.00
2018-12-07T12:27:19.641Z,99725.00
2018-12-07T12:29:47.815Z,99717.00
2018-12-07T12:32:16.089Z,99706.00
2018-12-07T12:34:44.289Z,99706.00
2018-12-07T12:37:12.550Z,99713.00
2018-12-07T12:39:40.814Z,99715.00
2018-12-07T12:42:09.093Z,99711.00
2018-12-07T12:44:37.265Z,99706.00
2018-12-07T12:47:05.545Z,99703.00
2018-12-07T12:49:33.851Z,99698.00
2018-12-07T12:52:02.073Z,99705.00
2018-12-07T12:54:30.372Z,99695.00
2018-12-07T12:56:58.646Z,99684.00
2018-12-07T12:59:26.928Z,99687.00
2018-12-07T13:01:55.221Z,99692.00
2018-12-07T13:04:23.473Z,99689.00
2018-12-07T13:06:51.758Z,99683.00
2018-12-07T13:09:20.238Z,99681.00
2018-12-07T13:11:48.481Z,99686.00
2018-12-07T13:14:16.684Z,99674.00
2018-12-07T13:16:44.843Z,99674.00
2018-12-07T13:19:13.122Z,99676.00
2018-12-07T13:21:41.342Z,99673.00
2018-12-07T13:24:09.570Z,99671.00
2018-12-07T13:26:37.746Z,99659.00
2018-12-07T13:29:05.992Z,99659.00
2018-12-07T13:31:34.209Z,99656.00
2018-12-07T13:34:02.426Z,99647.00
2018-12-07T13:36:30.596Z,99658.00
2018-12-07T13:38:58.866Z,99652.00
2018-12-07T13:41:27.599Z,99647.00
2018-12-07T13:43:56.234Z,99649.00
2018-12-07T13:46:24.654Z,99642.00
2018-12-07T13:48:53.097Z,99642.00
2018-12-07T13:51:22.001Z,99639.00
2018-12-07T13:53:50.621Z,99634.00
2018-12-07T13:56:18.902Z,99633.00
2018-12-07T13:58:47.449Z,99629.00
2018-12-07T14:01:15.889Z,99622.00
2018-12-07T14:03:44.356Z,99619.00
2018-12-07T14:06:12.887Z,99613.00
2018-12-07T14:08:41.336Z,99613.00
2018-12-07T14:11:09.644Z,99613.00
2018-12-07T14:13:38.013Z,99609.00
2018-12-07T14:16:06.343Z,99613.00
2018-12-07T14:18:34.528Z,99611.00
2018-12-07T14:21:02.708Z,99611.00
2018-12-07T14:23:30.964Z,99604.00
2018-12-07T14:25:59.461Z,99600.00
2018-12-07T14:28:27.952Z,99596.00
2018-12-07T14:30:56.453Z,99594.00
2018-12-07T14:33:24.917Z,99595.00
2018-12-07T14:35:53.366Z,99586.00
2018-12-07T14:38:21.719Z,99580.00
2018-12-07T14:40:49.997Z,99569.00
2018-12-07T14:43:18.392Z,99576.00
2018-12-07T14:45:47.023Z,99575.00
2018-12-07T14:48:15.562Z,99569.00
2018-12-07T14:50:43.750Z,99573.00
2018-12-07T14:53:12.052Z,99566.00
2018-12-07T14:55:40.519Z,99566.00
2018-12-07T14:58:08.887Z,99572.00
2018-12-07T15:00:37.449Z,99552.00
2018-12-07T15:03:05.746Z,99550.00
2018-12-07T15:05:34.135Z,99552.00
2018-12-07T15:08:02.567Z,99545.00
2018-12-07T15:10:31.342Z,99539.00
2018-12-07T15:12:59.642Z,99540.00
2018-12-07T15:15:27.956Z,99540.00
2018-12-07T15:17:56.545Z,99541.00
2018-12-07T15:20:24.928Z,99538.00
2018-12-07T15:22:53.363Z,99532.00
2018-12-07T15:25:22.162Z,99533.00
2018-12-07T15:27:50.378Z,99531.00
2018-12-07T15:30:18.955Z,99533.00
2018-12-07T15:32:47.303Z,99526.00
2018-12-07T15:35:15.697Z,99518.00
2018-12-07T15:37:44.130Z,99522.00
2018-12-07T15:40:12.695Z,99511.00
2018-12-07T15:42:41.133Z,99514.00
2018-12-07T15:45:09.779Z,99510.00
2018-12-07T15:47:38.239Z,99503.00
2018-12-07T15:50:07.200Z,99501.00
2018-12-07T15:52:35.940Z,99491.00
2018-12-07T15:55:04.492Z,99490.00
2018-12-07T15:57:32.757Z,99487.00
2018-12-07T16:00:01.149Z,99486.00
2018-12-07T16:02:29.592Z,99481.00
2018-12-07T16:04:58.291Z,99481.00
2018-12-07T16:07:26.868Z,99468.00
2018-12-07T16:09:55.382Z,99467.00
2018-12-07T16:12:23.861Z,99459.00
2018-12-07T16:14:52.443Z,99452.00
2018-12-07T16:17:20.856Z,99447.00
2018-12-07T16:19:49.412Z,99445.00
2018-12-07T16:22:20.013Z,99441.00
2018-12-07T16:24:49.501Z,99430.00
2018-12-07T16:27:18.309Z,99425.00
2018-12-07T16:29:46.636Z,99419.00
2018-12-07T16:32:14.896Z,99410.00
2018-12-07T16:34:43.954Z,99398.00
2018-12-07T16:37:13.238Z,99395.00
2018-12-07T16:39:41.819Z,99393.00
2018-12-07T16:42:10.498Z,99389.00
2018-12-07T16:44:39.248Z,99394.00
2018-12-07T16:47:07.695Z,99386.00
2018-12-07T16:49:36.038Z,99396.00
2018-12-07T16:52:04.435Z,99382.00
2018-12-07T16:54:32.963Z,99383.00
2018-12-07T16:57:01.584Z,99379.00
2018-12-07T16:59:30.288Z,99371.00
2018-12-07T17:01:58.616Z,99366.00
2018-12-07T17:04:27.190Z,99359.00
2018-12-07T17:06:55.642Z,99350.00
2018-12-07T17:09:24.493Z,99346.00
2018-12-07T17:11:53.081Z,99345.00
2018-12-07T17:14:21.725Z,99347.00
2018-12-07T17:16:50.037Z,99340.00
2018-12-07T17:19:18.296Z,99336.00
2018-12-07T17:21:46.753Z,99329.00
2018-12-07T17:24:15.178Z,99323.00
2018-12-07T17:26:43.446Z,99330.00
2018-12-07T17:29:11.709Z,99329.00
2018-12-07T17:31:40.147Z,99323.00
2018-12-07T17:34:09.493Z,99311.00
2018-12-07T17:36:38.456Z,99315.00
2018-12-07T17:39:07.839Z,99307.00
2018-12-07T17:41:37.263Z,99307.00
2018-12-07T17:44:05.655Z,99304.00
2018-12-07T17:46:33.942Z,99294.00
2018-12-07T17:49:02.232Z,99295.00
2018-12-07T17:51:30.701Z,99292.00
2018-12-07T17:53:59.169Z,99282.00
2018-12-07T17:56:27.493Z,99275.00
2018-12-07T17:58:56.134Z,99268.00
2018-12-07T18:01:24.358Z,99264.00
2018-12-07T18:03:52.536Z,99270.00
2018-12-07T18:06:20.908Z,99263.00
2018-12-07T18:08:50.177Z,99257.00
2018-12-07T18:11:18.748Z,99252.00
2018-12-07T18:13:48.211Z,99243.00
2018-12-07T18:16:19.158Z,99241.00
2018-12-07T18:18:47.885Z,99229.00
2018-12-07T18:21:16.708Z,99222.00
2018-12-07T18:23:45.308Z,99216.00
2018-12-07T18:26:13.686Z,99199.00
2018-12-07T18:28:42.482Z,99205.00
2018-12-07T18:31:10.944Z,99203.00
2018-12-07T18:33:40.194Z,99199.00
2018-12-07T18:36:08.521Z,99184.00
2018-12-07T18:38:36.893Z,99185.00
2018-12-07T18:41:05.284Z,99184.00
2018-12-07T18:43:33.954Z,99180.00
2018-12-07T18:46:02.464Z,99169.00
2018-12-07T18:48:30.781Z,99166.00
2018-12-07T18:50:59.198Z,99156.00
2018-12-07T18:53:27.756Z,99148.00
2018-12-07T18:55:56.177Z,99139.00
2018-12-07T18:58:24.655Z,99141.00
2018-12-07T19:00:53.018Z,99147.00
2018-12-07T19:03:21.563Z,99147.00
2018-12-07T19:05:49.953Z,99146.00
2018-12-07T19:08:18.201Z,99146.00
2018-12-07T19:10:46.486Z,99145.00
2018-12-07T19:13:15.757Z,99141.00
2018-12-07T19:15:44.754Z,99142.00
2018-12-07T19:18:15.428Z,99130.00
2018-12-07T19:20:43.911Z,99136.00
2018-12-07T19:23:12.262Z,99128.00
2018-12-07T19:25:40.733Z,99124.00
2018-12-07T19:28:09.257Z,99114.00
2018-12-07T19:30:37.857Z,99115.00
2018-12-07T19:33:06.522Z,99113.00
2018-12-07T19:35:35.042Z,99110.00
2018-12-07T19:38:03.643Z,99107.00
2018-12-07T19:40:32.139Z,99103.00
2018-12-07T19:43:00.395Z,99101.00
2018-12-07T19:45:28.807Z,99099.00
2018-12-07T19:47:57.132Z,99106.00
2018-12-07T19:50:25.602Z,99105.00
2018-12-07T19:52:54.213Z,99105.00
2018-12-07T19:55:22.499Z,99102.00
2018-12-07T19:57:51.103Z,99101.00
2018-12-07T20:00:19.753Z,99107.00
2018-12-07T20:02:50.404Z,99102.00
2018-12-07T20:05:18.582Z,99111.00
2018-12-07T20:07:47.146Z,99113.00
2018-12-07T20:10:15.566Z,99103.00
2018-12-07T20:12:44.030Z,99100.00
2018-12-07T20:15:12.503Z,99099.00
2018-12-07T20:17:41.562Z,99092.00
2018-12-07T20:20:10.292Z,99087.00
2018-12-07T20:22:38.850Z,99078.00
2018-12-07T20:25:11.456Z,99071.00
2018-12-07T20:27:39.973Z,99074.00
2018-12-07T20:30:08.401Z,99065.00
2018-12-07T20:32:37.098Z,99066.00
2018-12-07T20:35:05.872Z,99063.00
2018-12-07T20:37:35.157Z,99061.00
2018-12-07T20:40:04.208Z,99054.00
2018-12-07T20:42:33.306Z,99054.00
2018-12-07T20:45:01.658Z,99055.00
2018-12-07T20:47:29.943Z,99049.00
2018-12-07T20:49:58.698Z,99047.00
2018-12-07T20:52:27.482Z,99044.00
2018-12-07T20:54:56.127Z,99060.00
2018-12-07T20:57:24.882Z,99064.00
2018-12-07T20:59:53.591Z,99057.00
2018-12-07T21:02:22.030Z,99065.00
2018-12-07T21:04:50.592Z,99070.00
2018-12-07T21:07:40.421Z,99068.00
2018-12-07T21:14:09.002Z,99080.00
2018-12-07T21:17:02.590Z,99078.00
2018-12-07T21:19:31.526Z,99078.00
2018-12-07T21:22:00.913Z,99068.00
2018-12-07T21:24:29.683Z,99064.00
2018-12-07T21:26:58.221Z,99066.00
2018-12-07T21:29:26.725Z,99062.00
2018-12-07T21:32:00.461Z,99055.00
2018-12-07T21:35:06.322Z,99051.00
2018-12-07T21:37:34.706Z,99042.00
2018-12-07T21:40:09.939Z,99034.00
2018-12-07T21:42:38.579Z,99042.00
2018-12-07T21:45:07.215Z,99037.00
2018-12-07T21:47:56.258Z,99034.00
2018-12-07T21:50:24.787Z,99029.00
2018-12-07T21:52:54.447Z,99027.00
2018-12-07T21:55:23.001Z,99041.00
2018-12-07T21:57:51.531Z,99031.00
2018-12-07T22:00:19.837Z,99030.00
2018-12-07T22:02:48.859Z,99035.00
2018-12-07T22:05:17.378Z,99054.00
2018-12-07T22:07:45.824Z,99055.00
2018-12-07T22:10:14.137Z,99037.00
2018-12-07T22:12:42.509Z,99036.00
2018-12-07T22:15:10.762Z,99031.00
2018-12-07T22:17:39.347Z,99038.00
2018-12-07T22:20:08.383Z,99047.00
2018-12-07T22:22:36.610Z,99028.00
2018-12-07T22:25:04.914Z,99025.00
2018-12-07T22:27:33.249Z,99028.00
2018-12-07T22:30:02.125Z,99025.00
2018-12-07T22:32:30.707Z,99014.00
2018-12-07T22:34:59.205Z,99014.00
2018-12-07T22:37:27.913Z,99010.00
2018-12-07T22:39:56.430Z,99007.00
2018-12-07T22:42:24.895Z,99001.00
2018-12-07T22:44:53.234Z,98995.00
2018-12-07T22:47:21.766Z,99006.00
2018-12-07T22:49:50.802Z,98996.00
2018-12-07T22:52:19.265Z,99004.00
2018-12-07T22:54:47.541Z,99005.00
2018-12-07T22:57:16.745Z,98994.00
2018-12-07T22:59:45.022Z,98985.00
2018-12-07T23:02:13.257Z,98976.00
2018-12-07T23:04:41.474Z,98973.00
2018-12-07T23:07:09.742Z,98976.00
2018-12-07T23:09:37.912Z,98976.00
2018-12-07T23:12:06.179Z,98972.00
2018-12-07T23:14:34.566Z,98981.00
2018-12-07T23:17:02.761Z,98967.00
2018-12-07T23:19:31.038Z,98972.00
2018-12-07T23:21:59.237Z,98967.00
2018-12-07T23:24:27.654Z,98969.00
2018-12-07T23:26:55.946Z,98959.00
2018-12-07T23:29:24.145Z,98956.00
2018-12-07T23:31:52.393Z,98951.00
2018-12-07T23:34:20.683Z,98940.00
2018-12-07T23:36:49.054Z,98941.00
2018-12-07T23:39:17.326Z,98938.00
2018-12-07T23:41:45.701Z,98932.00
2018-12-07T23:44:13.925Z,98929.00
2018-12-07T23:46:42.121Z,98934.00
2018-12-07T23:49:10.383Z,98928.00
2018-12-07T23:51:38.697Z,98918.00
2018-12-07T23:54:07.086Z,98930.00
2018-12-07T23:56:35.317Z,98930.00
2018-12-07T23:59:03.562Z,98929.00
